createdAt,value
2019-05-17T00:02:12.597Z,7.00
2019-05-17T00:04:43.173Z,7.65
2019-05-17T00:07:13.678Z,6.70
2019-05-17T00:09:44.171Z,6.70
2019-05-17T00:12:16.631Z,6.10
2019-05-17T00:14:47.270Z,6.30
2019-05-17T00:17:17.873Z,6.03
2019-05-17T00:19:48.240Z,5.90
2019-05-17T00:22:18.767Z,5.70
2019-05-17T00:24:49.220Z,6.20
2019-05-17T00:27:19.661Z,6.35
2019-05-17T00:29:50.252Z,5.95
2019-05-17T00:32:20.637Z,6.58
2019-05-17T00:34:51.061Z,7.40
2019-05-17T00:37:21.471Z,7.03
2019-05-17T00:39:52.068Z,6.60
2019-05-17T00:42:22.517Z,6.78
2019-05-17T00:44:53.054Z,8.30
2019-05-17T00:47:23.498Z,8.20
2019-05-17T00:49:53.957Z,7.58
2019-05-17T00:52:24.380Z,8.60
2019-05-17T00:54:56.346Z,8.70
2019-05-17T00:57:27.469Z,9.48
2019-05-17T00:59:58.008Z,8.60
2019-05-17T01:02:28.460Z,8.20
2019-05-17T01:04:58.849Z,8.58
2019-05-17T01:07:29.390Z,8.55
2019-05-17T01:09:59.858Z,8.40
2019-05-17T01:12:30.283Z,8.33
2019-05-17T01:15:00.816Z,8.78
2019-05-17T01:17:31.262Z,9.73
2019-05-17T01:20:01.743Z,8.50
2019-05-17T01:22:32.318Z,9.40
2019-05-17T01:25:02.800Z,9.45
2019-05-17T01:27:33.292Z,10.03
2019-05-17T01:30:03.781Z,10.27
2019-05-17T01:32:34.258Z,9.53
2019-05-17T01:35:07.018Z,10.05
2019-05-17T01:37:37.306Z,9.97
2019-05-17T01:40:08.044Z,9.53
2019-05-17T01:42:38.497Z,9.88
2019-05-17T01:45:09.200Z,8.98
2019-05-17T01:47:39.650Z,10.08
2019-05-17T01:50:11.621Z,10.93
2019-05-17T01:52:42.149Z,10.88
2019-05-17T01:55:12.610Z,10.75
2019-05-17T01:57:43.044Z,11.53
2019-05-17T02:00:17.276Z,11.63
2019-05-17T02:02:48.701Z,11.60
2019-05-17T02:05:19.693Z,12.70
2019-05-17T02:07:50.146Z,11.85
2019-05-17T02:10:21.094Z,12.37
2019-05-17T02:12:51.580Z,12.88
2019-05-17T02:15:22.468Z,12.70
2019-05-17T02:17:52.858Z,12.82
2019-05-17T02:20:23.937Z,12.65
2019-05-17T02:22:56.371Z,14.05
2019-05-17T02:25:27.224Z,12.37
2019-05-17T02:27:57.874Z,12.55
2019-05-17T02:30:28.355Z,13.75
2019-05-17T02:33:03.392Z,13.83
2019-05-17T02:35:33.663Z,13.60
2019-05-17T02:38:04.078Z,14.33
2019-05-17T02:40:34.572Z,14.70
2019-05-17T02:43:05.096Z,14.53
2019-05-17T02:45:35.535Z,14.45
2019-05-17T02:48:05.996Z,15.18
2019-05-17T02:50:36.415Z,15.35
2019-05-17T02:53:06.843Z,16.43
2019-05-17T02:55:37.332Z,16.15
2019-05-17T02:58:07.821Z,16.35
2019-05-17T03:00:38.250Z,17.00
2019-05-17T03:03:08.709Z,17.02
2019-05-17T03:05:42.817Z,18.70
2019-05-17T03:08:12.279Z,17.50
2019-05-17T03:10:43.461Z,19.20
2019-05-17T03:13:17.633Z,18.87
2019-05-17T03:15:46.053Z,18.62
2019-05-17T03:18:16.549Z,19.40
2019-05-17T03:20:46.998Z,18.52
2019-05-17T03:23:17.479Z,19.35
2019-05-17T03:25:47.884Z,20.77
2019-05-17T03:28:18.334Z,19.70
2019-05-17T03:30:55.642Z,19.80
2019-05-17T03:33:26.412Z,20.37
2019-05-17T03:35:56.458Z,20.25
2019-05-17T03:38:27.905Z,20.70
2019-05-17T03:41:13.482Z,20.57
2019-05-17T03:43:30.604Z,21.12
2019-05-17T03:46:02.652Z,20.90
2019-05-17T03:48:33.658Z,20.82
2019-05-17T03:51:04.140Z,21.33
2019-05-17T03:53:34.617Z,20.55
2019-05-17T03:56:05.255Z,20.45
2019-05-17T03:58:35.732Z,18.98
2019-05-17T04:01:06.220Z,19.65
2019-05-17T04:03:36.731Z,20.02
2019-05-17T04:06:07.169Z,19.75
2019-05-17T04:08:37.673Z,18.90
2019-05-17T04:11:22.475Z,18.50
2019-05-17T04:13:43.036Z,18.62
2019-05-17T04:16:13.922Z,17.92
2019-05-17T04:18:44.862Z,18.17
2019-05-17T04:21:15.251Z,17.50
2019-05-17T04:23:45.843Z,17.48
2019-05-17T04:26:16.304Z,16.20
2019-05-17T04:28:46.755Z,17.82
2019-05-17T04:31:17.278Z,18.12
2019-05-17T04:33:47.745Z,17.30
2019-05-17T04:36:18.334Z,17.40
2019-05-17T04:38:48.809Z,17.77
2019-05-17T04:41:38.773Z,16.48
2019-05-17T04:43:53.222Z,16.40
2019-05-17T04:46:23.827Z,17.50
2019-05-17T04:48:54.357Z,16.30
2019-05-17T04:51:24.820Z,16.90
2019-05-17T04:53:55.315Z,16.30
2019-05-17T04:56:25.828Z,16.77
2019-05-17T04:58:56.314Z,17.05
2019-05-17T05:01:26.875Z,17.43
2019-05-17T05:03:57.371Z,15.88
2019-05-17T05:06:32.561Z,16.77
2019-05-17T05:09:02.753Z,15.47
2019-05-17T05:11:33.439Z,17.20
2019-05-17T05:14:04.021Z,16.75
2019-05-17T05:16:34.478Z,16.70
2019-05-17T05:19:04.955Z,17.10
2019-05-17T05:21:35.424Z,17.00
2019-05-17T05:24:05.920Z,17.07
2019-05-17T05:26:36.391Z,15.30
2019-05-17T05:29:06.863Z,17.07
2019-05-17T05:31:37.343Z,15.30
2019-05-17T05:34:07.811Z,14.83
2019-05-17T05:36:38.364Z,16.77
2019-05-17T05:39:11.524Z,15.40
2019-05-17T05:41:42.720Z,15.23
2019-05-17T05:44:13.313Z,14.00
2019-05-17T05:46:43.807Z,14.23
2019-05-17T05:49:14.295Z,15.20
2019-05-17T05:51:44.847Z,14.70
2019-05-17T05:54:15.327Z,14.63
2019-05-17T05:56:45.796Z,14.18
2019-05-17T05:59:16.314Z,13.48
2019-05-17T06:01:46.772Z,12.80
2019-05-17T06:04:17.260Z,12.15
2019-05-17T06:06:47.754Z,12.15
2019-05-17T06:09:18.264Z,12.33
2019-05-17T06:11:48.743Z,11.63
2019-05-17T06:14:21.459Z,10.50
2019-05-17T06:16:52.050Z,10.40
2019-05-17T06:19:22.714Z,11.00
2019-05-17T06:21:53.195Z,10.53
2019-05-17T06:24:23.711Z,11.43
2019-05-17T06:26:54.285Z,11.10
2019-05-17T06:29:24.828Z,11.60
2019-05-17T06:31:55.310Z,11.15
2019-05-17T06:34:25.778Z,11.60
2019-05-17T06:36:56.331Z,11.30
2019-05-17T06:39:26.745Z,11.50
2019-05-17T06:41:57.213Z,12.00
2019-05-17T06:44:27.741Z,12.33
2019-05-17T06:46:58.232Z,12.00
2019-05-17T06:49:28.749Z,11.48
2019-05-17T06:51:59.279Z,11.97
2019-05-17T06:54:29.737Z,11.53
2019-05-17T06:57:03.068Z,11.40
2019-05-17T06:59:32.436Z,11.00
2019-05-17T07:02:02.936Z,10.63
2019-05-17T07:04:33.411Z,10.60
2019-05-17T07:07:21.698Z,10.85
2019-05-17T07:09:52.225Z,10.45
2019-05-17T07:12:22.701Z,10.50
2019-05-17T07:14:53.262Z,10.30
2019-05-17T07:17:24.310Z,9.65
2019-05-17T07:19:54.774Z,8.00
2019-05-17T07:22:25.331Z,8.38
2019-05-17T07:24:55.810Z,7.80
2019-05-17T07:27:37.944Z,8.00
2019-05-17T07:29:59.278Z,8.40
2019-05-17T07:32:29.971Z,7.72
2019-05-17T07:35:00.565Z,8.30
2019-05-17T07:37:31.338Z,8.08
2019-05-17T07:40:05.110Z,8.08
2019-05-17T07:42:34.275Z,8.68
2019-05-17T07:45:05.588Z,8.95
2019-05-17T07:47:36.106Z,8.23
2019-05-17T07:50:10.832Z,7.65
2019-05-17T07:52:40.475Z,9.45
2019-05-17T07:55:11.380Z,8.73
2019-05-17T07:57:41.931Z,8.97
2019-05-17T08:00:14.358Z,9.53
2019-05-17T08:02:44.822Z,9.40
2019-05-17T08:05:15.816Z,9.40
2019-05-17T08:07:46.467Z,9.60
2019-05-17T08:10:20.196Z,9.78
2019-05-17T08:12:49.929Z,9.60
2019-05-17T08:15:20.472Z,9.65
2019-05-17T08:17:50.952Z,9.80
2019-05-17T08:20:21.443Z,10.90
2019-05-17T08:22:52.028Z,10.35
2019-05-17T08:25:22.657Z,9.98
2019-05-17T08:27:53.125Z,8.70
2019-05-17T08:30:24.318Z,7.75
2019-05-17T08:32:54.798Z,8.55
2019-05-17T08:35:25.323Z,8.40
2019-05-17T08:37:55.844Z,8.20
2019-05-17T08:40:26.328Z,9.00
2019-05-17T08:42:56.924Z,9.10
2019-05-17T08:45:29.499Z,7.20
2019-05-17T08:48:00.384Z,8.23
2019-05-17T08:50:31.291Z,8.18
2019-05-17T08:53:02.048Z,7.25
2019-05-17T08:55:32.549Z,6.87
2019-05-17T08:58:03.245Z,7.45
2019-05-17T09:00:33.765Z,7.50
2019-05-17T09:03:04.395Z,6.50
2019-05-17T09:05:34.889Z,7.20
2019-05-17T09:08:05.477Z,6.58
2019-05-17T09:10:36.022Z,7.78
2019-05-17T09:13:06.567Z,7.43
2019-05-17T09:15:37.062Z,7.50
2019-05-17T09:18:09.804Z,7.70
2019-05-17T09:20:40.580Z,7.12
2019-05-17T09:23:11.514Z,7.75
2019-05-17T09:25:42.011Z,8.00
2019-05-17T09:28:12.571Z,7.90
2019-05-17T09:30:45.648Z,8.00
2019-05-17T09:33:16.172Z,6.62
2019-05-17T09:35:46.723Z,7.40
2019-05-17T09:38:17.251Z,7.37
2019-05-17T09:40:47.718Z,8.30
2019-05-17T09:43:20.700Z,7.50
2019-05-17T09:45:51.473Z,7.00
2019-05-17T09:48:21.911Z,7.53
2019-05-17T09:50:52.402Z,8.13
2019-05-17T09:53:23.708Z,8.30
2019-05-17T09:55:54.343Z,8.28
2019-05-17T09:58:24.888Z,8.70
2019-05-17T10:00:55.475Z,7.75
2019-05-17T10:03:26.076Z,8.00
2019-05-17T10:05:56.564Z,7.85
2019-05-17T10:08:27.204Z,8.03
2019-05-17T10:11:06.009Z,8.03
2019-05-17T10:13:29.964Z,8.30
2019-05-17T10:16:00.597Z,8.53
2019-05-17T10:18:31.601Z,8.10
2019-05-17T10:21:02.109Z,9.30
2019-05-17T10:23:32.743Z,9.03
2019-05-17T10:26:10.590Z,8.40
2019-05-17T10:28:56.178Z,8.80
2019-05-17T10:31:30.251Z,7.42
2019-05-17T10:34:16.853Z,8.40
2019-05-17T10:36:50.532Z,8.48
2019-05-17T10:39:20.107Z,9.15
2019-05-17T10:41:53.974Z,7.85
2019-05-17T10:44:24.595Z,8.25
2019-05-17T10:46:55.217Z,7.40
2019-05-17T10:49:25.838Z,8.60
2019-05-17T10:51:56.382Z,8.35
2019-05-17T10:54:29.964Z,7.40
2019-05-17T10:57:00.205Z,8.18
2019-05-17T10:59:30.666Z,7.50
2019-05-17T11:02:01.208Z,7.87
2019-05-17T11:04:31.852Z,7.85
2019-05-17T11:07:02.380Z,7.50
2019-05-17T11:09:32.936Z,6.25
2019-05-17T11:12:03.585Z,7.05
2019-05-17T11:14:38.327Z,8.28
2019-05-17T11:17:06.762Z,7.80
2019-05-17T11:19:37.468Z,7.67
2019-05-17T11:22:08.070Z,8.08
2019-05-17T11:24:38.600Z,7.90
2019-05-17T11:27:09.215Z,7.50
2019-05-17T11:29:39.979Z,7.25
2019-05-17T11:32:10.614Z,6.90
2019-05-17T11:34:41.161Z,6.20
2019-05-17T11:37:11.899Z,7.37
2019-05-17T11:39:42.664Z,6.80
2019-05-17T11:42:13.474Z,6.90
2019-05-17T11:44:44.200Z,7.80
2019-05-17T11:47:14.939Z,7.90
2019-05-17T11:49:45.624Z,7.67
2019-05-17T11:52:16.460Z,7.50
2019-05-17T11:54:46.849Z,7.60
2019-05-17T11:57:17.492Z,8.25
2019-05-17T11:59:49.901Z,7.00
2019-05-17T12:02:21.609Z,7.30
2019-05-17T12:04:53.767Z,6.75
2019-05-17T12:07:24.639Z,6.92
2019-05-17T12:09:55.442Z,7.62
2019-05-17T12:12:26.191Z,7.00
2019-05-17T12:14:56.838Z,7.80
2019-05-17T12:17:27.539Z,7.80
2019-05-17T12:19:58.396Z,7.40
2019-05-17T12:22:29.012Z,8.30
2019-05-17T12:25:00.020Z,7.40
2019-05-17T12:27:30.612Z,6.80
2019-05-17T12:30:01.119Z,7.75
2019-05-17T12:32:31.740Z,7.10
2019-05-17T12:35:02.465Z,7.12
2019-05-17T12:37:33.432Z,7.12
2019-05-17T12:40:04.016Z,7.60
2019-05-17T12:42:34.554Z,7.08
2019-05-17T12:45:05.351Z,7.10
2019-05-17T12:47:35.974Z,7.53
2019-05-17T12:50:06.676Z,7.50
2019-05-17T12:52:37.536Z,8.35
2019-05-17T12:55:08.250Z,8.30
2019-05-17T12:57:38.810Z,7.50
2019-05-17T13:00:11.651Z,7.83
2019-05-17T13:02:42.260Z,7.22
2019-05-17T13:05:13.193Z,6.35
2019-05-17T13:07:43.781Z,6.72
2019-05-17T13:10:18.615Z,6.87
2019-05-17T13:12:49.128Z,7.40
2019-05-17T13:15:20.852Z,7.53
2019-05-17T13:17:51.754Z,7.10
2019-05-17T13:20:26.762Z,7.90
2019-05-17T13:22:57.329Z,7.47
2019-05-17T13:25:27.969Z,6.80
2019-05-17T13:27:58.565Z,8.00
2019-05-17T13:30:29.189Z,7.30
2019-05-17T13:32:59.807Z,7.17
2019-05-17T13:35:30.427Z,7.40
2019-05-17T13:38:01.114Z,6.80
2019-05-17T13:40:39.244Z,7.57
2019-05-17T13:43:04.677Z,6.27
2019-05-17T13:45:36.136Z,7.60
2019-05-17T13:48:06.642Z,7.10
2019-05-17T13:50:38.991Z,7.92
2019-05-17T13:53:09.609Z,7.00
2019-05-17T13:55:40.402Z,7.50
2019-05-17T13:58:10.945Z,7.00
2019-05-17T14:00:41.649Z,6.50
2019-05-17T14:03:12.206Z,6.50
2019-05-17T14:05:42.706Z,6.60
2019-05-17T14:08:13.247Z,6.45
2019-05-17T14:10:44.132Z,7.05
2019-05-17T14:13:14.734Z,7.28
2019-05-17T14:15:46.063Z,7.25
2019-05-17T14:18:16.706Z,7.35
2019-05-17T14:20:47.217Z,6.78
2019-05-17T14:23:17.791Z,7.00
2019-05-17T14:25:48.474Z,7.37
2019-05-17T14:28:18.999Z,7.67
2019-05-17T14:30:49.496Z,7.43
2019-05-17T14:33:20.017Z,7.80
2019-05-17T14:35:50.580Z,7.70
2019-05-17T14:38:21.160Z,6.95
2019-05-17T14:41:06.686Z,6.40
2019-05-17T14:43:26.174Z,6.25
2019-05-17T14:45:56.692Z,7.03
2019-05-17T14:48:27.234Z,6.53
2019-05-17T14:50:57.743Z,6.10
2019-05-17T14:53:28.258Z,7.00
2019-05-17T14:55:58.784Z,6.72
2019-05-17T14:58:29.426Z,6.30
2019-05-17T15:00:59.961Z,5.87
2019-05-17T15:03:30.439Z,5.20
2019-05-17T15:06:00.989Z,6.00
2019-05-17T15:13:32.764Z,5.63
2019-05-17T15:16:03.459Z,5.90
2019-05-17T15:18:33.925Z,5.40
2019-05-17T15:21:04.773Z,5.90
2019-05-17T15:23:35.281Z,5.00
2019-05-17T15:26:05.783Z,6.20
2019-05-17T15:28:36.335Z,6.67
2019-05-17T15:31:06.855Z,6.40
2019-05-17T15:33:37.348Z,6.77
2019-05-17T15:36:07.969Z,6.37
2019-05-17T15:38:38.543Z,6.53
2019-05-17T15:41:09.126Z,7.70
2019-05-17T15:43:39.702Z,8.10
2019-05-17T15:46:10.255Z,6.72
2019-05-17T15:48:40.828Z,7.23
2019-05-17T15:51:11.610Z,7.10
2019-05-17T15:53:42.126Z,7.45
2019-05-17T15:56:12.561Z,7.10
2019-05-17T15:58:43.250Z,7.53
2019-05-17T16:01:15.888Z,7.80
2019-05-17T16:03:46.625Z,7.47
2019-05-17T16:06:17.241Z,6.90
2019-05-17T16:08:47.875Z,7.25
2019-05-17T16:11:18.812Z,6.78
2019-05-17T16:13:50.735Z,5.70
2019-05-17T16:16:21.318Z,6.40
2019-05-17T16:18:51.972Z,6.37
2019-05-17T16:21:22.587Z,6.03
2019-05-17T16:23:53.132Z,6.30
2019-05-17T16:26:23.681Z,6.10
2019-05-17T16:28:54.379Z,6.40
2019-05-17T16:31:25.687Z,6.25
2019-05-17T16:33:56.256Z,5.00
2019-05-17T16:36:26.923Z,6.20
2019-05-17T16:38:57.484Z,6.20
2019-05-17T16:41:29.092Z,5.58
2019-05-17T16:43:59.675Z,6.20
2019-05-17T16:46:30.306Z,5.50
2019-05-17T16:49:00.761Z,5.60
2019-05-17T16:51:31.323Z,6.15
2019-05-17T16:54:01.840Z,5.90
2019-05-17T16:56:32.607Z,4.80
2019-05-17T16:59:03.255Z,5.12
2019-05-17T17:01:33.865Z,7.70
2019-05-17T17:04:04.457Z,10.60
2019-05-17T17:06:34.990Z,11.60
2019-05-17T17:09:06.888Z,12.33
2019-05-17T17:11:37.415Z,12.35
2019-05-17T17:14:07.968Z,13.30
2019-05-17T17:16:38.422Z,11.35
2019-05-17T17:19:09.060Z,11.40
2019-05-17T17:21:39.647Z,12.10
2019-05-17T17:24:10.221Z,11.30
2019-05-17T17:26:40.797Z,11.25
2019-05-17T17:29:11.341Z,11.48
2019-05-17T17:31:41.909Z,11.40
2019-05-17T17:34:12.399Z,10.63
2019-05-17T17:36:42.857Z,10.75
2019-05-17T17:39:13.424Z,10.53
2019-05-17T17:41:43.903Z,11.37
2019-05-17T17:44:14.422Z,11.20
2019-05-17T17:46:44.987Z,11.03
2019-05-17T17:49:15.505Z,11.30
2019-05-17T17:51:46.074Z,9.95
2019-05-17T17:54:16.611Z,10.32
2019-05-17T17:56:47.139Z,11.05
2019-05-17T17:59:17.633Z,10.68
2019-05-17T18:01:48.289Z,10.82
2019-05-17T18:04:18.817Z,10.40
2019-05-17T18:06:49.325Z,10.93
2019-05-17T18:09:19.921Z,11.53
2019-05-17T18:11:50.462Z,10.05
2019-05-17T18:14:21.037Z,10.50
2019-05-17T18:16:51.582Z,10.70
2019-05-17T18:19:22.124Z,10.75
2019-05-17T18:21:52.723Z,11.00
2019-05-17T18:24:23.239Z,11.22
2019-05-17T18:26:53.822Z,11.88
2019-05-17T18:29:24.446Z,11.55
2019-05-17T18:31:55.013Z,11.40
2019-05-17T18:34:25.594Z,12.10
2019-05-17T18:36:56.215Z,11.50
2019-05-17T18:39:26.743Z,10.95
2019-05-17T18:41:57.347Z,11.53
2019-05-17T18:44:28.294Z,12.10
2019-05-17T18:46:58.784Z,11.30
2019-05-17T18:49:29.258Z,11.25
2019-05-17T18:51:59.974Z,12.77
2019-05-17T18:54:30.589Z,12.15
2019-05-17T18:57:01.279Z,12.00
2019-05-17T18:59:31.816Z,11.90
2019-05-17T19:02:02.532Z,12.35
2019-05-17T19:04:33.256Z,11.53
2019-05-17T19:07:03.915Z,12.03
2019-05-17T19:09:34.596Z,11.35
2019-05-17T19:12:05.433Z,12.18
2019-05-17T19:14:42.959Z,11.95
2019-05-17T19:17:09.182Z,12.23
2019-05-17T19:19:39.827Z,12.60
2019-05-17T19:22:10.489Z,12.60
2019-05-17T19:24:41.049Z,13.18
2019-05-17T19:27:11.650Z,12.70
2019-05-17T19:29:43.395Z,13.53
2019-05-17T19:32:14.224Z,12.03
2019-05-17T19:34:44.881Z,13.03
2019-05-17T19:37:16.066Z,12.95
2019-05-17T19:39:46.871Z,13.05
2019-05-17T19:42:17.844Z,13.20
2019-05-17T19:44:58.728Z,12.88
2019-05-17T19:47:20.978Z,12.82
2019-05-17T19:49:51.701Z,14.00
2019-05-17T19:52:22.553Z,13.15
2019-05-17T19:54:53.270Z,12.90
2019-05-17T19:57:24.053Z,13.75
2019-05-17T19:59:55.105Z,13.83
2019-05-17T20:02:25.875Z,14.05
2019-05-17T20:04:56.454Z,14.43
2019-05-17T20:07:39.759Z,15.03
2019-05-17T20:10:11.664Z,14.73
2019-05-17T20:12:42.268Z,13.80
2019-05-17T20:15:17.825Z,14.80
2019-05-17T20:17:45.983Z,15.67
2019-05-17T20:20:17.261Z,15.90
2019-05-17T20:22:47.863Z,15.48
2019-05-17T20:25:19.917Z,15.90
2019-05-17T20:27:50.444Z,16.10
2019-05-17T20:30:21.541Z,15.70
2019-05-17T20:32:52.104Z,16.60
2019-05-17T20:35:22.649Z,17.95
2019-05-17T20:37:53.301Z,17.60
2019-05-17T20:40:23.982Z,17.87
2019-05-17T20:42:54.533Z,17.82
2019-05-17T20:45:33.177Z,19.12
2019-05-17T20:47:57.791Z,19.30
2019-05-17T20:50:28.393Z,20.30
2019-05-17T20:52:59.028Z,20.82
2019-05-17T20:55:29.617Z,22.52
2019-05-17T20:58:00.287Z,22.22
2019-05-17T21:00:30.980Z,22.70
2019-05-17T21:03:01.609Z,24.10
2019-05-17T21:05:32.191Z,23.12
2019-05-17T21:08:02.941Z,25.43
2019-05-17T21:10:33.438Z,24.65
2019-05-17T21:13:04.017Z,24.00
2019-05-17T21:15:47.053Z,24.57
2019-05-17T21:18:06.888Z,24.27
2019-05-17T21:20:37.855Z,24.05
2019-05-17T21:23:08.435Z,23.85
2019-05-17T21:25:38.957Z,23.47
2019-05-17T21:28:09.482Z,24.35
2019-05-17T21:30:40.064Z,23.42
2019-05-17T21:33:10.572Z,25.23
2019-05-17T21:35:41.131Z,26.17
2019-05-17T21:38:11.651Z,25.43
2019-05-17T21:40:42.173Z,24.47
2019-05-17T21:43:12.772Z,25.72
2019-05-17T21:45:43.268Z,25.20
2019-05-17T21:48:13.852Z,25.68
2019-05-17T21:50:44.412Z,25.60
2019-05-17T21:53:14.933Z,27.17
2019-05-17T21:55:45.461Z,26.50
2019-05-17T21:58:20.223Z,27.23
2019-05-17T22:01:19.256Z,27.85
2019-05-17T22:03:49.942Z,28.40
2019-05-17T22:06:20.672Z,28.20
2019-05-17T22:08:51.235Z,28.42
2019-05-17T22:11:21.779Z,28.17
2019-05-17T22:13:52.483Z,29.48
2019-05-17T22:16:22.965Z,30.43
2019-05-17T22:18:53.559Z,30.50
2019-05-17T22:21:24.066Z,29.10
2019-05-17T22:23:55.306Z,29.13
2019-05-17T22:26:25.853Z,32.10
2019-05-17T22:28:56.559Z,29.98
2019-05-17T22:31:27.058Z,31.07
2019-05-17T22:33:57.682Z,31.15
2019-05-17T22:36:28.462Z,33.10
2019-05-17T22:38:59.037Z,32.20
2019-05-17T22:41:29.640Z,34.23
2019-05-17T22:44:00.131Z,34.00
2019-05-17T22:46:35.948Z,34.10
2019-05-17T22:49:02.964Z,34.55
2019-05-17T22:51:33.619Z,33.70
2019-05-17T22:54:04.224Z,35.30
2019-05-17T22:56:34.799Z,35.45
2019-05-17T22:59:05.420Z,34.90
2019-05-17T23:01:35.907Z,37.40
2019-05-17T23:04:06.886Z,38.25
2019-05-17T23:06:37.435Z,35.23
2019-05-17T23:09:08.658Z,35.20
2019-05-17T23:11:39.349Z,36.20
2019-05-17T23:14:09.917Z,35.08
2019-05-17T23:16:51.217Z,35.80
2019-05-17T23:19:12.698Z,34.95
2019-05-17T23:21:43.282Z,36.10
2019-05-17T23:24:13.801Z,35.80
2019-05-17T23:26:44.260Z,34.45
2019-05-17T23:29:14.745Z,34.80
2019-05-17T23:31:45.263Z,34.03
2019-05-17T23:34:15.785Z,32.30
2019-05-17T23:36:46.334Z,32.85
2019-05-17T23:39:16.874Z,33.35
2019-05-17T23:41:47.416Z,32.83
2019-05-17T23:44:17.930Z,33.40
2019-05-17T23:46:48.445Z,32.23
2019-05-17T23:49:19.025Z,31.77
2019-05-17T23:51:49.465Z,33.00
2019-05-17T23:54:19.998Z,31.90
2019-05-17T23:56:50.584Z,33.05
2019-05-17T23:59:21.217Z,32.50
